sensor_id;sensor_type;location;lat;lon;timestamp;P1;durP1;ratioP1;P2;durP2;ratioP2
20069;SDS011;10195;50.868;4.382;2024-03-29T00:00:53;5.90;;;1.40;;
20069;SDS011;10195;50.868;4.382;2024-03-29T00:03:20;8.60;;;1.90;;
20069;SDS011;10195;50.868;4.382;2024-03-29T00:05:45;5.07;;;1.70;;
20069;SDS011;10195;50.868;4.382;2024-03-29T00:08:11;3.93;;;1.20;;
20069;SDS011;10195;50.868;4.382;2024-03-29T00:10:37;2.17;;;0.70;;
20069;SDS011;10195;50.868;4.382;2024-03-29T00:13:03;8.67;;;1.43;;
20069;SDS011;10195;50.868;4.382;2024-03-29T00:15:29;6.23;;;1.40;;
20069;SDS011;10195;50.868;4.382;2024-03-29T00:17:56;6.83;;;2.00;;
20069;SDS011;10195;50.868;4.382;2024-03-29T00:20:22;4.87;;;1.43;;
20069;SDS011;10195;50.868;4.382;2024-03-29T00:22:48;6.10;;;1.40;;
20069;SDS011;10195;50.868;4.382;2024-03-29T00:25:14;6.30;;;1.10;;
20069;SDS011;10195;50.868;4.382;2024-03-29T00:27:40;4.57;;;1.30;;
20069;SDS011;10195;50.868;4.382;2024-03-29T00:30:06;8.23;;;1.40;;
20069;SDS011;10195;50.868;4.382;2024-03-29T00:32:32;3.87;;;1.50;;
20069;SDS011;10195;50.868;4.382;2024-03-29T00:34:57;7.10;;;1.60;;
20069;SDS011;10195;50.868;4.382;2024-03-29T00:37:23;4.67;;;1.20;;
20069;SDS011;10195;50.868;4.382;2024-03-29T00:39:49;3.53;;;1.43;;
20069;SDS011;10195;50.868;4.382;2024-03-29T00:42:15;5.37;;;1.50;;
20069;SDS011;10195;50.868;4.382;2024-03-29T00:44:42;3.87;;;1.10;;
20069;SDS011;10195;50.868;4.382;2024-03-29T00:47:08;4.80;;;1.60;;
20069;SDS011;10195;50.868;4.382;2024-03-29T00:49:34;3.27;;;1.07;;
20069;SDS011;10195;50.868;4.382;2024-03-29T00:52:01;5.60;;;1.37;;
20069;SDS011;10195;50.868;4.382;2024-03-29T00:54:27;6.87;;;1.70;;
20069;SDS011;10195;50.868;4.382;2024-03-29T00:56:54;6.50;;;1.33;;
20069;SDS011;10195;50.868;4.382;2024-03-29T00:59:19;5.53;;;1.30;;
20069;SDS011;10195;50.868;4.382;2024-03-29T01:01:45;6.70;;;1.40;;
20069;SDS011;10195;50.868;4.382;2024-03-29T01:04:11;5.90;;;1.40;;
20069;SDS011;10195;50.868;4.382;2024-03-29T01:06:38;3.90;;;1.00;;
20069;SDS011;10195;50.868;4.382;2024-03-29T01:09:05;3.03;;;1.30;;
20069;SDS011;10195;50.868;4.382;2024-03-29T01:11:31;3.63;;;1.00;;
20069;SDS011;10195;50.868;4.382;2024-03-29T01:13:56;2.80;;;1.10;;
20069;SDS011;10195;50.868;4.382;2024-03-29T01:16:22;5.77;;;1.20;;
20069;SDS011;10195;50.868;4.382;2024-03-29T01:18:49;5.30;;;1.67;;
20069;SDS011;10195;50.868;4.382;2024-03-29T01:21:15;3.10;;;1.00;;
20069;SDS011;10195;50.868;4.382;2024-03-29T01:23:43;3.47;;;1.00;;
20069;SDS011;10195;50.868;4.382;2024-03-29T01:26:08;3.47;;;1.10;;
20069;SDS011;10195;50.868;4.382;2024-03-29T01:28:36;6.00;;;1.43;;
20069;SDS011;10195;50.868;4.382;2024-03-29T01:31:02;6.03;;;1.27;;
20069;SDS011;10195;50.868;4.382;2024-03-29T01:33:29;2.70;;;0.90;;
20069;SDS011;10195;50.868;4.382;2024-03-29T01:35:58;4.97;;;1.03;;
20069;SDS011;10195;50.868;4.382;2024-03-29T01:38:23;2.73;;;1.13;;
20069;SDS011;10195;50.868;4.382;2024-03-29T01:40:49;7.40;;;1.40;;
20069;SDS011;10195;50.868;4.382;2024-03-29T01:43:15;4.87;;;1.27;;
20069;SDS011;10195;50.868;4.382;2024-03-29T01:45:41;3.60;;;1.17;;
20069;SDS011;10195;50.868;4.382;2024-03-29T01:48:08;4.47;;;1.37;;
20069;SDS011;10195;50.868;4.382;2024-03-29T01:50:35;4.03;;;1.00;;
20069;SDS011;10195;50.868;4.382;2024-03-29T01:53:02;2.50;;;0.73;;
20069;SDS011;10195;50.868;4.382;2024-03-29T01:55:30;2.33;;;1.37;;
20069;SDS011;10195;50.868;4.382;2024-03-29T01:57:56;2.40;;;1.17;;
20069;SDS011;10195;50.868;4.382;2024-03-29T02:00:22;2.43;;;1.07;;
20069;SDS011;10195;50.868;4.382;2024-03-29T02:02:48;2.27;;;0.87;;
20069;SDS011;10195;50.868;4.382;2024-03-29T02:05:14;2.30;;;0.70;;
20069;SDS011;10195;50.868;4.382;2024-03-29T02:07:40;0.93;;;0.70;;
20069;SDS011;10195;50.868;4.382;2024-03-29T02:10:08;1.70;;;0.83;;
20069;SDS011;10195;50.868;4.382;2024-03-29T02:12:37;2.13;;;0.60;;
20069;SDS011;10195;50.868;4.382;2024-03-29T02:15:04;1.60;;;0.60;;
20069;SDS011;10195;50.868;4.382;2024-03-29T02:17:31;0.90;;;0.50;;
20069;SDS011;10195;50.868;4.382;2024-03-29T02:19:57;1.07;;;0.60;;
20069;SDS011;10195;50.868;4.382;2024-03-29T02:22:23;2.47;;;0.50;;
20069;SDS011;10195;50.868;4.382;2024-03-29T02:24:50;1.37;;;0.70;;
20069;SDS011;10195;50.868;4.382;2024-03-29T02:27:16;0.73;;;0.53;;
20069;SDS011;10195;50.868;4.382;2024-03-29T02:29:42;1.70;;;0.60;;
20069;SDS011;10195;50.868;4.382;2024-03-29T02:32:07;1.10;;;0.63;;
20069;SDS011;10195;50.868;4.382;2024-03-29T02:34:33;2.10;;;0.70;;
20069;SDS011;10195;50.868;4.382;2024-03-29T02:36:59;1.03;;;0.60;;
20069;SDS011;10195;50.868;4.382;2024-03-29T02:39:25;1.33;;;0.70;;
20069;SDS011;10195;50.868;4.382;2024-03-29T02:41:50;2.70;;;1.10;;
20069;SDS011;10195;50.868;4.382;2024-03-29T02:44:16;1.40;;;1.03;;
20069;SDS011;10195;50.868;4.382;2024-03-29T02:46:42;2.63;;;1.23;;
20069;SDS011;10195;50.868;4.382;2024-03-29T02:49:08;4.37;;;1.40;;
20069;SDS011;10195;50.868;4.382;2024-03-29T02:51:34;5.27;;;1.17;;
20069;SDS011;10195;50.868;4.382;2024-03-29T02:54:00;1.70;;;0.80;;
20069;SDS011;10195;50.868;4.382;2024-03-29T02:56:26;3.80;;;0.90;;
20069;SDS011;10195;50.868;4.382;2024-03-29T02:58:52;7.40;;;0.97;;
20069;SDS011;10195;50.868;4.382;2024-03-29T03:01:20;4.80;;;0.93;;
20069;SDS011;10195;50.868;4.382;2024-03-29T03:03:45;4.70;;;1.20;;
20069;SDS011;10195;50.868;4.382;2024-03-29T03:06:11;5.30;;;1.10;;
20069;SDS011;10195;50.868;4.382;2024-03-29T03:08:37;2.93;;;0.87;;
20069;SDS011;10195;50.868;4.382;2024-03-29T03:11:21;2.20;;;1.03;;
20069;SDS011;10195;50.868;4.382;2024-03-29T03:13:46;2.03;;;0.60;;
20069;SDS011;10195;50.868;4.382;2024-03-29T03:16:12;3.17;;;0.90;;
20069;SDS011;10195;50.868;4.382;2024-03-29T03:18:38;2.77;;;1.10;;
20069;SDS011;10195;50.868;4.382;2024-03-29T03:21:04;2.77;;;1.10;;
20069;SDS011;10195;50.868;4.382;2024-03-29T03:23:30;4.53;;;1.00;;
20069;SDS011;10195;50.868;4.382;2024-03-29T03:25:56;6.27;;;1.23;;
20069;SDS011;10195;50.868;4.382;2024-03-29T03:28:23;4.13;;;1.10;;
20069;SDS011;10195;50.868;4.382;2024-03-29T03:30:49;4.70;;;1.10;;
20069;SDS011;10195;50.868;4.382;2024-03-29T03:33:16;3.90;;;1.10;;
20069;SDS011;10195;50.868;4.382;2024-03-29T03:35:42;2.23;;;1.03;;
20069;SDS011;10195;50.868;4.382;2024-03-29T03:38:08;4.47;;;0.87;;
20069;SDS011;10195;50.868;4.382;2024-03-29T03:40:34;2.50;;;0.90;;
20069;SDS011;10195;50.868;4.382;2024-03-29T03:43:01;2.43;;;1.00;;
20069;SDS011;10195;50.868;4.382;2024-03-29T03:45:27;3.70;;;1.30;;
20069;SDS011;10195;50.868;4.382;2024-03-29T03:47:53;6.33;;;1.10;;
20069;SDS011;10195;50.868;4.382;2024-03-29T03:50:19;3.10;;;1.10;;
20069;SDS011;10195;50.868;4.382;2024-03-29T03:52:45;3.80;;;1.20;;
20069;SDS011;10195;50.868;4.382;2024-03-29T03:55:10;4.13;;;1.40;;
20069;SDS011;10195;50.868;4.382;2024-03-29T03:57:36;3.00;;;0.87;;
20069;SDS011;10195;50.868;4.382;2024-03-29T04:00:02;2.97;;;0.90;;
20069;SDS011;10195;50.868;4.382;2024-03-29T04:02:29;5.07;;;1.27;;
20069;SDS011;10195;50.868;4.382;2024-03-29T04:04:54;3.00;;;1.10;;
20069;SDS011;10195;50.868;4.382;2024-03-29T04:07:20;3.60;;;0.97;;
20069;SDS011;10195;50.868;4.382;2024-03-29T04:09:46;8.10;;;1.10;;
20069;SDS011;10195;50.868;4.382;2024-03-29T04:12:15;4.40;;;1.00;;
20069;SDS011;10195;50.868;4.382;2024-03-29T04:14:40;4.53;;;1.30;;
20069;SDS011;10195;50.868;4.382;2024-03-29T04:17:06;2.23;;;0.90;;
20069;SDS011;10195;50.868;4.382;2024-03-29T04:19:32;2.73;;;0.90;;
20069;SDS011;10195;50.868;4.382;2024-03-29T04:21:57;2.93;;;0.97;;
20069;SDS011;10195;50.868;4.382;2024-03-29T04:24:23;3.47;;;1.10;;
20069;SDS011;10195;50.868;4.382;2024-03-29T04:26:48;1.77;;;0.87;;
20069;SDS011;10195;50.868;4.382;2024-03-29T04:29:14;1.90;;;1.00;;
20069;SDS011;10195;50.868;4.382;2024-03-29T04:31:40;1.10;;;0.80;;
20069;SDS011;10195;50.868;4.382;2024-03-29T04:34:06;1.57;;;0.67;;
20069;SDS011;10195;50.868;4.382;2024-03-29T04:36:31;1.17;;;0.70;;
20069;SDS011;10195;50.868;4.382;2024-03-29T04:38:57;4.30;;;0.80;;
20069;SDS011;10195;50.868;4.382;2024-03-29T04:41:23;2.13;;;0.70;;
20069;SDS011;10195;50.868;4.382;2024-03-29T04:43:50;2.67;;;1.10;;
20069;SDS011;10195;50.868;4.382;2024-03-29T04:46:15;2.33;;;1.00;;
20069;SDS011;10195;50.868;4.382;2024-03-29T04:48:41;2.67;;;0.80;;
20069;SDS011;10195;50.868;4.382;2024-03-29T04:51:08;2.77;;;0.83;;
20069;SDS011;10195;50.868;4.382;2024-03-29T04:53:40;1.77;;;0.70;;
20069;SDS011;10195;50.868;4.382;2024-03-29T04:56:06;4.63;;;1.13;;
20069;SDS011;10195;50.868;4.382;2024-03-29T04:58:32;1.43;;;0.70;;
20069;SDS011;10195;50.868;4.382;2024-03-29T05:00:58;1.73;;;0.70;;
20069;SDS011;10195;50.868;4.382;2024-03-29T05:03:24;1.00;;;0.60;;
20069;SDS011;10195;50.868;4.382;2024-03-29T05:05:50;1.27;;;0.80;;
20069;SDS011;10195;50.868;4.382;2024-03-29T05:08:16;1.67;;;0.60;;
20069;SDS011;10195;50.868;4.382;2024-03-29T05:10:46;2.03;;;0.80;;
20069;SDS011;10195;50.868;4.382;2024-03-29T05:13:12;5.30;;;1.00;;
20069;SDS011;10195;50.868;4.382;2024-03-29T05:15:38;4.53;;;0.90;;
20069;SDS011;10195;50.868;4.382;2024-03-29T05:18:03;2.27;;;0.70;;
20069;SDS011;10195;50.868;4.382;2024-03-29T05:20:32;1.63;;;0.70;;
20069;SDS011;10195;50.868;4.382;2024-03-29T05:22:58;7.03;;;1.20;;
20069;SDS011;10195;50.868;4.382;2024-03-29T05:25:24;2.80;;;0.80;;
20069;SDS011;10195;50.868;4.382;2024-03-29T05:27:50;3.27;;;0.97;;
20069;SDS011;10195;50.868;4.382;2024-03-29T05:30:16;2.00;;;0.87;;
20069;SDS011;10195;50.868;4.382;2024-03-29T05:32:42;2.97;;;0.93;;
20069;SDS011;10195;50.868;4.382;2024-03-29T05:35:09;1.07;;;0.70;;
20069;SDS011;10195;50.868;4.382;2024-03-29T05:37:35;2.80;;;0.90;;
20069;SDS011;10195;50.868;4.382;2024-03-29T05:40:03;1.63;;;0.90;;
20069;SDS011;10195;50.868;4.382;2024-03-29T05:42:32;1.77;;;0.90;;
20069;SDS011;10195;50.868;4.382;2024-03-29T05:45:01;1.90;;;0.73;;
20069;SDS011;10195;50.868;4.382;2024-03-29T05:47:30;3.63;;;0.80;;
20069;SDS011;10195;50.868;4.382;2024-03-29T05:49:56;1.40;;;0.80;;
20069;SDS011;10195;50.868;4.382;2024-03-29T05:52:22;2.50;;;0.90;;
20069;SDS011;10195;50.868;4.382;2024-03-29T05:54:48;1.37;;;0.83;;
20069;SDS011;10195;50.868;4.382;2024-03-29T05:57:14;1.67;;;1.10;;
20069;SDS011;10195;50.868;4.382;2024-03-29T05:59:39;3.80;;;1.30;;
20069;SDS011;10195;50.868;4.382;2024-03-29T06:02:05;4.40;;;0.87;;
20069;SDS011;10195;50.868;4.382;2024-03-29T06:04:31;1.73;;;1.17;;
20069;SDS011;10195;50.868;4.382;2024-03-29T06:07:01;2.87;;;0.97;;
20069;SDS011;10195;50.868;4.382;2024-03-29T06:09:28;1.93;;;1.10;;
20069;SDS011;10195;50.868;4.382;2024-03-29T06:11:54;3.87;;;1.20;;
20069;SDS011;10195;50.868;4.382;2024-03-29T06:14:21;2.70;;;1.20;;
20069;SDS011;10195;50.868;4.382;2024-03-29T06:17:06;2.20;;;1.00;;
20069;SDS011;10195;50.868;4.382;2024-03-29T06:19:54;2.57;;;1.13;;
20069;SDS011;10195;50.868;4.382;2024-03-29T06:22:25;2.73;;;1.00;;
20069;SDS011;10195;50.868;4.382;2024-03-29T06:24:55;3.37;;;1.10;;
20069;SDS011;10195;50.868;4.382;2024-03-29T06:27:24;3.77;;;1.17;;
20069;SDS011;10195;50.868;4.382;2024-03-29T06:29:50;3.73;;;1.47;;
20069;SDS011;10195;50.868;4.382;2024-03-29T06:32:16;6.40;;;1.50;;
20069;SDS011;10195;50.868;4.382;2024-03-29T06:34:43;2.63;;;1.13;;
20069;SDS011;10195;50.868;4.382;2024-03-29T06:37:09;4.57;;;1.47;;
20069;SDS011;10195;50.868;4.382;2024-03-29T06:39:35;4.57;;;1.30;;
20069;SDS011;10195;50.868;4.382;2024-03-29T06:42:01;5.33;;;1.97;;
20069;SDS011;10195;50.868;4.382;2024-03-29T06:44:27;5.77;;;1.70;;
20069;SDS011;10195;50.868;4.382;2024-03-29T06:46:52;6.50;;;1.73;;
20069;SDS011;10195;50.868;4.382;2024-03-29T06:49:19;2.10;;;1.40;;
20069;SDS011;10195;50.868;4.382;2024-03-29T06:51:44;4.87;;;2.10;;
20069;SDS011;10195;50.868;4.382;2024-03-29T06:54:10;4.43;;;1.73;;
20069;SDS011;10195;50.868;4.382;2024-03-29T06:56:36;4.60;;;1.70;;
20069;SDS011;10195;50.868;4.382;2024-03-29T06:59:01;7.23;;;1.80;;
20069;SDS011;10195;50.868;4.382;2024-03-29T07:01:27;4.37;;;2.03;;
20069;SDS011;10195;50.868;4.382;2024-03-29T07:03:53;5.43;;;1.57;;
20069;SDS011;10195;50.868;4.382;2024-03-29T07:06:18;5.00;;;1.47;;
20069;SDS011;10195;50.868;4.382;2024-03-29T07:08:44;13.43;;;2.03;;
20069;SDS011;10195;50.868;4.382;2024-03-29T07:11:10;3.33;;;1.70;;
20069;SDS011;10195;50.868;4.382;2024-03-29T07:13:36;3.87;;;1.57;;
20069;SDS011;10195;50.868;4.382;2024-03-29T07:16:02;5.13;;;1.60;;
20069;SDS011;10195;50.868;4.382;2024-03-29T07:18:28;3.90;;;1.97;;
20069;SDS011;10195;50.868;4.382;2024-03-29T07:20:54;9.60;;;2.00;;
20069;SDS011;10195;50.868;4.382;2024-03-29T07:23:20;6.23;;;1.77;;
20069;SDS011;10195;50.868;4.382;2024-03-29T07:25:56;4.83;;;1.87;;
20069;SDS011;10195;50.868;4.382;2024-03-29T07:28:26;3.33;;;1.87;;
20069;SDS011;10195;50.868;4.382;2024-03-29T07:30:52;4.47;;;1.77;;
20069;SDS011;10195;50.868;4.382;2024-03-29T07:33:19;3.83;;;1.37;;
20069;SDS011;10195;50.868;4.382;2024-03-29T07:35:48;7.60;;;1.90;;
20069;SDS011;10195;50.868;4.382;2024-03-29T07:38:14;10.37;;;6.63;;
20069;SDS011;10195;50.868;4.382;2024-03-29T07:40:43;6.20;;;2.20;;
20069;SDS011;10195;50.868;4.382;2024-03-29T07:43:09;4.63;;;1.90;;
20069;SDS011;10195;50.868;4.382;2024-03-29T07:45:35;5.80;;;1.80;;
20069;SDS011;10195;50.868;4.382;2024-03-29T07:48:00;3.60;;;1.80;;
20069;SDS011;10195;50.868;4.382;2024-03-29T07:50:26;8.53;;;2.60;;
20069;SDS011;10195;50.868;4.382;2024-03-29T07:52:52;5.20;;;1.97;;
20069;SDS011;10195;50.868;4.382;2024-03-29T07:55:17;7.10;;;1.73;;
20069;SDS011;10195;50.868;4.382;2024-03-29T07:57:43;5.63;;;1.90;;
20069;SDS011;10195;50.868;4.382;2024-03-29T08:00:09;6.10;;;2.30;;
20069;SDS011;10195;50.868;4.382;2024-03-29T08:02:35;5.97;;;2.17;;
20069;SDS011;10195;50.868;4.382;2024-03-29T08:05:01;8.33;;;1.87;;
20069;SDS011;10195;50.868;4.382;2024-03-29T08:07:27;5.33;;;2.00;;
20069;SDS011;10195;50.868;4.382;2024-03-29T08:09:53;6.37;;;1.97;;
20069;SDS011;10195;50.868;4.382;2024-03-29T08:12:19;6.53;;;2.33;;
20069;SDS011;10195;50.868;4.382;2024-03-29T08:14:44;6.03;;;2.40;;
20069;SDS011;10195;50.868;4.382;2024-03-29T08:17:11;6.17;;;1.90;;
20069;SDS011;10195;50.868;4.382;2024-03-29T08:19:39;4.73;;;2.20;;
20069;SDS011;10195;50.868;4.382;2024-03-29T08:22:06;5.23;;;1.90;;
20069;SDS011;10195;50.868;4.382;2024-03-29T08:24:33;6.47;;;1.87;;
20069;SDS011;10195;50.868;4.382;2024-03-29T08:26:58;7.53;;;2.23;;
20069;SDS011;10195;50.868;4.382;2024-03-29T08:29:26;5.13;;;2.00;;
20069;SDS011;10195;50.868;4.382;2024-03-29T08:31:52;3.03;;;1.87;;
20069;SDS011;10195;50.868;4.382;2024-03-29T08:34:18;4.40;;;2.00;;
20069;SDS011;10195;50.868;4.382;2024-03-29T08:36:43;3.57;;;2.00;;
20069;SDS011;10195;50.868;4.382;2024-03-29T08:39:09;6.97;;;2.27;;
20069;SDS011;10195;50.868;4.382;2024-03-29T08:41:36;4.97;;;1.80;;
20069;SDS011;10195;50.868;4.382;2024-03-29T08:44:02;5.07;;;2.93;;
20069;SDS011;10195;50.868;4.382;2024-03-29T08:46:28;5.67;;;2.30;;
20069;SDS011;10195;50.868;4.382;2024-03-29T08:48:54;3.53;;;1.70;;
20069;SDS011;10195;50.868;4.382;2024-03-29T08:51:22;4.47;;;1.70;;
20069;SDS011;10195;50.868;4.382;2024-03-29T08:53:48;4.67;;;2.10;;
20069;SDS011;10195;50.868;4.382;2024-03-29T08:56:14;2.60;;;1.60;;
20069;SDS011;10195;50.868;4.382;2024-03-29T08:58:40;4.93;;;1.87;;
20069;SDS011;10195;50.868;4.382;2024-03-29T09:01:06;3.80;;;2.00;;
20069;SDS011;10195;50.868;4.382;2024-03-29T09:03:32;1.97;;;1.67;;
20069;SDS011;10195;50.868;4.382;2024-03-29T09:05:57;4.80;;;1.63;;
20069;SDS011;10195;50.868;4.382;2024-03-29T09:08:23;3.83;;;1.53;;
20069;SDS011;10195;50.868;4.382;2024-03-29T09:10:49;3.67;;;1.70;;
20069;SDS011;10195;50.868;4.382;2024-03-29T09:13:15;7.17;;;2.10;;
20069;SDS011;10195;50.868;4.382;2024-03-29T09:15:41;3.63;;;1.70;;
20069;SDS011;10195;50.868;4.382;2024-03-29T09:18:07;5.30;;;2.08;;
20069;SDS011;10195;50.868;4.382;2024-03-29T09:20:42;8.45;;;1.98;;
20069;SDS011;10195;50.868;4.382;2024-03-29T09:23:09;3.50;;;1.85;;
20069;SDS011;10195;50.868;4.382;2024-03-29T09:25:39;4.57;;;1.80;;
20069;SDS011;10195;50.868;4.382;2024-03-29T09:28:05;8.23;;;1.75;;
20069;SDS011;10195;50.868;4.382;2024-03-29T09:30:31;4.67;;;1.70;;
20069;SDS011;10195;50.868;4.382;2024-03-29T09:32:57;4.30;;;1.83;;
20069;SDS011;10195;50.868;4.382;2024-03-29T09:35:23;2.40;;;1.33;;
20069;SDS011;10195;50.868;4.382;2024-03-29T09:37:49;6.97;;;1.53;;
20069;SDS011;10195;50.868;4.382;2024-03-29T09:40:15;2.67;;;1.40;;
20069;SDS011;10195;50.868;4.382;2024-03-29T09:42:43;1.93;;;1.40;;
20069;SDS011;10195;50.868;4.382;2024-03-29T09:45:10;2.25;;;1.40;;
20069;SDS011;10195;50.868;4.382;2024-03-29T09:47:36;7.37;;;2.20;;
20069;SDS011;10195;50.868;4.382;2024-03-29T09:50:03;2.80;;;1.50;;
20069;SDS011;10195;50.868;4.382;2024-03-29T09:52:33;3.57;;;1.63;;
20069;SDS011;10195;50.868;4.382;2024-03-29T09:55:00;6.93;;;1.80;;
20069;SDS011;10195;50.868;4.382;2024-03-29T09:57:27;2.75;;;1.55;;
20069;SDS011;10195;50.868;4.382;2024-03-29T09:59:56;5.93;;;1.58;;
20069;SDS011;10195;50.868;4.382;2024-03-29T10:02:22;2.58;;;1.50;;
20069;SDS011;10195;50.868;4.382;2024-03-29T10:04:53;2.50;;;1.52;;
20069;SDS011;10195;50.868;4.382;2024-03-29T10:07:22;3.10;;;1.75;;
20069;SDS011;10195;50.868;4.382;2024-03-29T10:09:49;3.45;;;1.70;;
20069;SDS011;10195;50.868;4.382;2024-03-29T10:12:16;2.30;;;1.10;;
20069;SDS011;10195;50.868;4.382;2024-03-29T10:14:45;3.65;;;1.27;;
20069;SDS011;10195;50.868;4.382;2024-03-29T10:17:17;4.35;;;1.52;;
20069;SDS011;10195;50.868;4.382;2024-03-29T10:19:43;3.45;;;1.73;;
20069;SDS011;10195;50.868;4.382;2024-03-29T10:22:09;3.15;;;1.92;;
20069;SDS011;10195;50.868;4.382;2024-03-29T10:24:35;3.08;;;1.67;;
20069;SDS011;10195;50.868;4.382;2024-03-29T10:27:02;2.53;;;1.80;;
20069;SDS011;10195;50.868;4.382;2024-03-29T10:29:28;3.13;;;1.35;;
20069;SDS011;10195;50.868;4.382;2024-03-29T10:31:57;4.53;;;1.50;;
20069;SDS011;10195;50.868;4.382;2024-03-29T10:34:26;2.20;;;1.23;;
20069;SDS011;10195;50.868;4.382;2024-03-29T10:36:52;1.80;;;1.37;;
20069;SDS011;10195;50.868;4.382;2024-03-29T10:39:18;2.63;;;1.43;;
20069;SDS011;10195;50.868;4.382;2024-03-29T10:41:46;2.47;;;1.40;;
20069;SDS011;10195;50.868;4.382;2024-03-29T10:44:14;1.83;;;1.40;;
20069;SDS011;10195;50.868;4.382;2024-03-29T10:46:40;3.30;;;1.63;;
20069;SDS011;10195;50.868;4.382;2024-03-29T10:49:07;3.60;;;1.40;;
20069;SDS011;10195;50.868;4.382;2024-03-29T10:51:39;2.20;;;1.50;;
20069;SDS011;10195;50.868;4.382;2024-03-29T10:54:06;2.80;;;1.20;;
20069;SDS011;10195;50.868;4.382;2024-03-29T10:56:35;2.30;;;1.30;;
20069;SDS011;10195;50.868;4.382;2024-03-29T11:01:47;1.50;;;0.90;;
20069;SDS011;10195;50.868;4.382;2024-03-29T11:04:19;1.67;;;1.25;;
20069;SDS011;10195;50.868;4.382;2024-03-29T11:06:47;2.92;;;1.20;;
20069;SDS011;10195;50.868;4.382;2024-03-29T11:09:16;3.25;;;1.20;;
20069;SDS011;10195;50.868;4.382;2024-03-29T11:11:44;4.55;;;2.97;;
20069;SDS011;10195;50.868;4.382;2024-03-29T11:14:16;3.00;;;1.20;;
20069;SDS011;10195;50.868;4.382;2024-03-29T11:16:45;2.60;;;1.10;;
20069;SDS011;10195;50.868;4.382;2024-03-29T11:19:13;2.85;;;1.10;;
20069;SDS011;10195;50.868;4.382;2024-03-29T11:21:40;3.13;;;1.55;;
20069;SDS011;10195;50.868;4.382;2024-03-29T11:24:07;4.33;;;1.23;;
20069;SDS011;10195;50.868;4.382;2024-03-29T11:26:36;1.48;;;1.00;;
20069;SDS011;10195;50.868;4.382;2024-03-29T11:29:02;0.77;;;0.70;;
20069;SDS011;10195;50.868;4.382;2024-03-29T11:31:28;8.55;;;1.05;;
20069;SDS011;10195;50.868;4.382;2024-03-29T11:33:57;2.05;;;1.17;;
20069;SDS011;10195;50.868;4.382;2024-03-29T11:36:23;2.53;;;0.90;;
20069;SDS011;10195;50.868;4.382;2024-03-29T11:38:55;1.83;;;1.10;;
20069;SDS011;10195;50.868;4.382;2024-03-29T11:41:23;1.38;;;0.90;;
20069;SDS011;10195;50.868;4.382;2024-03-29T11:43:54;2.67;;;0.90;;
20069;SDS011;10195;50.868;4.382;2024-03-29T11:46:20;1.75;;;1.00;;
20069;SDS011;10195;50.868;4.382;2024-03-29T11:48:47;5.82;;;1.00;;
20069;SDS011;10195;50.868;4.382;2024-03-29T11:51:19;2.00;;;1.02;;
20069;SDS011;10195;50.868;4.382;2024-03-29T11:53:46;1.67;;;1.10;;
20069;SDS011;10195;50.868;4.382;2024-03-29T11:56:13;3.67;;;1.00;;
20069;SDS011;10195;50.868;4.382;2024-03-29T11:58:39;5.25;;;1.00;;
20069;SDS011;10195;50.868;4.382;2024-03-29T12:01:05;3.85;;;1.30;;
20069;SDS011;10195;50.868;4.382;2024-03-29T12:03:37;1.70;;;0.90;;
20069;SDS011;10195;50.868;4.382;2024-03-29T12:06:03;2.05;;;0.82;;
20069;SDS011;10195;50.868;4.382;2024-03-29T12:08:33;1.02;;;0.73;;
20069;SDS011;10195;50.868;4.382;2024-03-29T12:11:00;1.17;;;0.88;;
20069;SDS011;10195;50.868;4.382;2024-03-29T12:13:28;5.22;;;1.17;;
20069;SDS011;10195;50.868;4.382;2024-03-29T12:15:54;1.48;;;1.25;;
20069;SDS011;10195;50.868;4.382;2024-03-29T12:18:20;1.95;;;1.02;;
20069;SDS011;10195;50.868;4.382;2024-03-29T12:20:47;2.88;;;1.05;;
20069;SDS011;10195;50.868;4.382;2024-03-29T12:23:15;1.55;;;1.02;;
20069;SDS011;10195;50.868;4.382;2024-03-29T12:25:42;2.53;;;1.00;;
20069;SDS011;10195;50.868;4.382;2024-03-29T12:28:08;6.68;;;1.30;;
20069;SDS011;10195;50.868;4.382;2024-03-29T12:30:35;4.03;;;1.27;;
20069;SDS011;10195;50.868;4.382;2024-03-29T12:33:03;2.15;;;1.20;;
20069;SDS011;10195;50.868;4.382;2024-03-29T12:35:31;2.58;;;1.30;;
20069;SDS011;10195;50.868;4.382;2024-03-29T12:38:02;1.67;;;1.27;;
20069;SDS011;10195;50.868;4.382;2024-03-29T12:40:29;2.08;;;1.35;;
20069;SDS011;10195;50.868;4.382;2024-03-29T12:43:02;3.47;;;1.90;;
20069;SDS011;10195;50.868;4.382;2024-03-29T12:45:33;3.30;;;1.60;;
20069;SDS011;10195;50.868;4.382;2024-03-29T12:48:10;2.45;;;1.38;;
20069;SDS011;10195;50.868;4.382;2024-03-29T12:50:39;3.88;;;2.03;;
20069;SDS011;10195;50.868;4.382;2024-03-29T12:53:06;2.28;;;1.42;;
20069;SDS011;10195;50.868;4.382;2024-03-29T12:55:33;3.35;;;1.70;;
20069;SDS011;10195;50.868;4.382;2024-03-29T12:58:04;3.13;;;1.05;;
20069;SDS011;10195;50.868;4.382;2024-03-29T13:00:33;1.48;;;0.68;;
20069;SDS011;10195;50.868;4.382;2024-03-29T13:02:59;2.13;;;1.13;;
20069;SDS011;10195;50.868;4.382;2024-03-29T13:05:25;2.78;;;0.93;;
20069;SDS011;10195;50.868;4.382;2024-03-29T13:07:52;1.23;;;1.00;;
20069;SDS011;10195;50.868;4.382;2024-03-29T13:10:18;1.55;;;1.00;;
20069;SDS011;10195;50.868;4.382;2024-03-29T13:12:47;3.28;;;1.02;;
20069;SDS011;10195;50.868;4.382;2024-03-29T13:15:15;2.75;;;1.50;;
20069;SDS011;10195;50.868;4.382;2024-03-29T13:17:43;3.03;;;1.25;;
20069;SDS011;10195;50.868;4.382;2024-03-29T13:20:09;3.03;;;1.42;;
20069;SDS011;10195;50.868;4.382;2024-03-29T13:22:36;3.88;;;1.20;;
20069;SDS011;10195;50.868;4.382;2024-03-29T13:25:02;2.45;;;1.50;;
20069;SDS011;10195;50.868;4.382;2024-03-29T13:27:30;6.78;;;1.33;;
20069;SDS011;10195;50.868;4.382;2024-03-29T13:29:56;4.38;;;1.58;;
20069;SDS011;10195;50.868;4.382;2024-03-29T13:32:21;1.50;;;1.20;;
20069;SDS011;10195;50.868;4.382;2024-03-29T13:34:47;3.92;;;1.48;;
20069;SDS011;10195;50.868;4.382;2024-03-29T13:37:13;4.20;;;1.42;;
20069;SDS011;10195;50.868;4.382;2024-03-29T13:39:39;6.50;;;1.50;;
20069;SDS011;10195;50.868;4.382;2024-03-29T13:42:05;2.88;;;1.20;;
20069;SDS011;10195;50.868;4.382;2024-03-29T13:44:30;2.45;;;1.00;;
20069;SDS011;10195;50.868;4.382;2024-03-29T13:46:59;1.42;;;0.80;;
20069;SDS011;10195;50.868;4.382;2024-03-29T13:49:28;1.97;;;1.10;;
20069;SDS011;10195;50.868;4.382;2024-03-29T13:51:55;4.00;;;0.93;;
20069;SDS011;10195;50.868;4.382;2024-03-29T13:54:21;4.03;;;1.17;;
20069;SDS011;10195;50.868;4.382;2024-03-29T13:56:48;1.73;;;1.00;;
20069;SDS011;10195;50.868;4.382;2024-03-29T13:59:13;3.55;;;0.90;;
20069;SDS011;10195;50.868;4.382;2024-03-29T14:01:39;2.33;;;0.80;;
20069;SDS011;10195;50.868;4.382;2024-03-29T14:04:05;2.63;;;1.00;;
20069;SDS011;10195;50.868;4.382;2024-03-29T14:06:31;4.68;;;0.80;;
20069;SDS011;10195;50.868;4.382;2024-03-29T14:08:57;2.25;;;0.70;;
20069;SDS011;10195;50.868;4.382;2024-03-29T14:11:23;2.58;;;1.10;;
20069;SDS011;10195;50.868;4.382;2024-03-29T14:13:49;3.43;;;1.00;;
20069;SDS011;10195;50.868;4.382;2024-03-29T14:16:20;3.45;;;1.08;;
20069;SDS011;10195;50.868;4.382;2024-03-29T14:18:47;1.23;;;0.97;;
20069;SDS011;10195;50.868;4.382;2024-03-29T14:21:12;3.17;;;1.17;;
20069;SDS011;10195;50.868;4.382;2024-03-29T14:23:38;2.47;;;1.08;;
20069;SDS011;10195;50.868;4.382;2024-03-29T14:26:04;3.90;;;1.08;;
20069;SDS011;10195;50.868;4.382;2024-03-29T14:28:29;2.20;;;1.02;;
20069;SDS011;10195;50.868;4.382;2024-03-29T14:30:55;3.70;;;0.90;;
20069;SDS011;10195;50.868;4.382;2024-03-29T14:33:20;6.88;;;1.20;;
20069;SDS011;10195;50.868;4.382;2024-03-29T14:35:46;3.65;;;1.00;;
20069;SDS011;10195;50.868;4.382;2024-03-29T14:38:13;4.45;;;1.48;;
20069;SDS011;10195;50.868;4.382;2024-03-29T14:40:39;4.47;;;1.07;;
20069;SDS011;10195;50.868;4.382;2024-03-29T14:43:05;3.30;;;1.30;;
20069;SDS011;10195;50.868;4.382;2024-03-29T14:45:30;3.33;;;1.37;;
20069;SDS011;10195;50.868;4.382;2024-03-29T14:47:56;2.50;;;1.50;;